Sign-in with your pilot id or email, or register

ICAO: OMAA Name / Country: Abu Dhabi International Airport / United Arab Emirates
Latitude: 24.433 Longitude: 54.6511
Total Arrivals:
Strict Standards: Non-static method AirportData::getarrflights() should not be called statically, assuming $this from incompatible context in /var/www/customers/vh-7192/web/home/phpvms/core/templates/airport_info.tpl on line 18
1
Total Departures:
Strict Standards: Non-static method AirportData::getdeptflights() should not be called statically, assuming $this from incompatible context in /var/www/customers/vh-7192/web/home/phpvms/core/templates/airport_info.tpl on line 21
1
Latest Arrival: MTA5PM (OKBK-OMAA) Tibor Berces Latest Departure: MTA5PM (OMAA-OIIE) Tibor Berces
Metar: OMAA 271000Z 31010KT CAVOK 40/17 Q1004 NOSIG
More info

Charts for OMAA


NOTAM


Warning: file_get_contents(http://api.vateud.net/notams/OMAA.json): failed to open stream: Redirection limit reached, aborting in /var/www/customers/vh-7192/web/home/phpvms/core/common/NOTAMSData.class.php on line 18

Warning: Invalid argument supplied for foreach() in /var/www/customers/vh-7192/web/home/phpvms/core/common/NOTAMSData.class.php on line 22

Abu Dhabi International Airport